CheckWX is a tool to help pilots better visualize weather data.  It is not intended as a substitute for an official pre-flight weather briefing.

04:16:33 UTC

OISF METAR
Fasa Airport
Fasa, Iran
Current

17 mins ago

OISF 290400Z 00000KT CAVOK 05/02 Q1015 A2999
Observed
Feb-29 @ 04:00 UTC
Visibility
10,000+ meters
Flight Rules
VFR
Cloud Levels
  • Clear skies
Temperature
C / 41°F
Dewpoint
C / 36°F
Humidity
81%
Altimeter
29.97" Hg
Pressure
1014.92 hPa
Previous

1 hour ago

OISF 290300Z 00000KT CAVOK 03/02 Q1014 A2997
Observed
Feb-29 @ 03:00 UTC
Visibility
10,000+ meters
Flight Rules
VFR
Cloud Levels
  • Clear skies
Temperature
C / 37°F
Dewpoint
C / 36°F
Humidity
93%
Altimeter
29.94" Hg
Pressure
1013.92 hPa
Previous

2 hours ago

OISF 290200Z 00000KT CAVOK 04/02 Q1014 A2997
Observed
Feb-29 @ 02:00 UTC
Visibility
10,000+ meters
Flight Rules
VFR
Cloud Levels
  • Clear skies
Temperature
C / 39°F
Dewpoint
C / 36°F
Humidity
87%
Altimeter
29.94" Hg
Pressure
1013.92 hPa